Terminal Aerodrome Forecast
Issued by NWS Sioux Falls, SD

Home | Current Version | Previous Version | Graphics & Text | Print | Product List | Glossary Off
Versions: 1 2 3 4 5 6 7 8 9 10 11 12 13

836
FTUS43 KFSD 220550
TAFHON
TAF
KHON 220550Z 2206/2306 03008KT P6SM FEW140
     FM220800 04009KT P6SM VCTS BKN100CB
     FM221000 04007KT P6SM -TSRA BKN060CB
      TEMPO 2211/2213 5SM -TSRA BKN040CB
     FM221500 02005KT P6SM -SHRA OVC050
     FM221700 33006KT P6SM BKN080
     FM221900 32008KT P6SM SCT100
     FM230300 31007KT P6SM FEW250=

USA.gov is the U.S. government's official web portal to all federal, state and local government web resources and services.